Time;durP1;ratioP1;P1;durP2;ratioP2;P2;SDS_P1;SDS_P2;PMS_P1;PMS_P2;Temp;Humidity;BMP_temperature;BMP_pressure;BME280_temperature;BME280_humidity;BME280_pressure;Samples;Min_cycle;Max_cycle;Signal;HPM_P1;HPM_P2
2022/06/05 00:00:14;;;;;;;;;13.00;12.00;;;;;19.79;70.39;101121.06;5046011;28;45430;-80
2022/06/05 00:03:10;;;;;;;;;13.75;11.50;;;;;19.82;70.00;101114.75;5076619;28;45765;-80
2022/06/05 00:05:54;;;;;;;;;18.25;17.75;;;;;19.84;70.53;101115.56;5089405;28;45763;-80
2022/06/05 00:08:49;;;;;;;;;14.00;14.00;;;;;19.85;70.59;101130.66;5040231;28;46616;-80
2022/06/05 00:11:15;;;;;;;;;14.00;13.50;;;;;19.87;70.32;101125.28;5056748;28;45347;-80
2022/06/05 00:13:54;;;;;;;;;16.25;13.00;;;;;19.87;70.27;101127.94;5063435;28;45407;-81
2022/06/05 00:16:24;;;;;;;;;16.25;16.00;;;;;19.87;70.34;101126.13;5049669;28;45476;-80
2022/06/05 00:18:50;;;;;;;;;13.00;13.00;;;;;19.87;69.93;101120.78;5052780;28;45572;-80
2022/06/05 00:21:16;;;;;;;;;16.50;15.00;;;;;19.87;70.18;101122.59;5055268;28;45515;-79
2022/06/05 00:23:42;;;;;;;;;18.50;17.00;;;;;19.85;70.02;101103.94;5040264;28;45468;-80
2022/06/05 00:26:26;;;;;;;;;17.00;16.50;;;;;19.88;70.29;101114.50;5059110;28;45524;-80
2022/06/05 00:29:16;;;;;;;;;14.50;11.25;;;;;19.88;70.23;101111.84;5038912;28;46139;-79
2022/06/05 00:31:50;;;;;;;;;16.00;14.75;;;;;19.87;70.10;101110.09;5020460;28;46163;-82
2022/06/05 00:34:15;;;;;;;;;15.00;11.75;;;;;19.86;69.85;101113.72;5043690;28;45277;-81
2022/06/05 00:37:00;;;;;;;;;14.00;12.00;;;;;19.86;69.91;101110.16;5041494;28;45334;-82
2022/06/05 00:39:49;;;;;;;;;16.00;14.00;;;;;19.85;69.85;101106.59;5066055;28;46154;-81
2022/06/05 00:42:20;;;;;;;;;17.75;16.75;;;;;19.86;70.36;101088.75;5054770;28;45313;-81
2022/06/05 00:44:55;;;;;;;;;14.00;14.00;;;;;19.85;70.24;101085.22;5047273;28;45801;-81
2022/06/05 00:47:25;;;;;;;;;19.50;13.00;;;;;19.82;70.22;101088.88;5040412;28;45969;-82
2022/06/05 00:50:07;;;;;;;;;14.50;13.00;;;;;19.79;70.48;101082.78;5052844;28;46287;-82
2022/06/05 00:52:35;;;;;;;;;15.50;14.00;;;;;19.75;70.24;101075.81;5060542;28;45619;-83
2022/06/05 00:55:01;;;;;;;;;14.00;14.00;;;;;19.69;70.07;101068.03;5051454;28;45245;-81
2022/06/05 00:57:29;;;;;;;;;15.00;13.50;;;;;19.60;70.25;101062.06;5043085;28;46233;-81
2022/06/05 00:59:55;;;;;;;;;12.50;12.50;;;;;19.56;70.38;101064.88;5038048;28;48214;-79
2022/06/05 01:02:21;;;;;;;;;10.00;9.75;;;;;19.50;70.75;101062.44;5052614;28;45407;-79
2022/06/05 01:04:49;;;;;;;;;11.25;11.25;;;;;19.44;71.23;101065.34;5030065;28;45384;-80
2022/06/05 01:07:15;;;;;;;;;10.50;10.50;;;;;19.37;71.15;101070.00;5025844;28;45639;-80
2022/06/05 01:09:43;;;;;;;;;13.00;12.00;;;;;19.35;71.67;101077.19;5049946;28;45513;-79
2022/06/05 01:12:26;;;;;;;;;11.75;11.75;;;;;19.34;71.52;101067.44;5041966;28;45429;-80
2022/06/05 01:15:13;;;;;;;;;11.75;11.50;;;;;19.33;71.72;101058.56;5047423;28;45475;-79
2022/06/05 01:18:02;;;;;;;;;11.00;10.00;;;;;19.32;71.49;101058.59;5029467;28;45451;-80
2022/06/05 01:20:38;;;;;;;;;10.25;10.25;;;;;19.29;71.51;101042.69;5042952;28;45559;-80
2022/06/05 01:23:29;;;;;;;;;9.50;9.50;;;;;19.28;71.78;101031.16;5038245;28;45508;-80
2022/06/05 01:25:57;;;;;;;;;14.25;11.25;;;;;19.26;71.51;101019.66;5063465;28;45490;-79
2022/06/05 01:28:31;;;;;;;;;12.00;9.50;;;;;19.26;71.58;101017.00;5046830;28;45258;-79
2022/06/05 01:31:06;;;;;;;;;11.50;10.25;;;;;19.27;71.51;101015.19;5036755;28;47263;-80
2022/06/05 01:33:33;;;;;;;;;10.50;10.50;;;;;19.26;71.78;101014.31;5056326;28;45266;-79
2022/06/05 01:36:16;;;;;;;;;9.00;8.50;;;;;19.25;71.51;101009.06;5037889;28;45360;-79
2022/06/05 01:39:00;;;;;;;;;14.50;13.75;;;;;19.20;71.84;101011.88;5053940;28;45265;-80
2022/06/05 01:41:33;;;;;;;;;12.00;11.00;;;;;19.18;71.41;101011.91;5037919;28;48382;-79
2022/06/05 01:44:04;;;;;;;;;15.75;13.00;;;;;19.17;71.64;101002.19;5051014;28;45474;-79
2022/06/05 01:46:34;;;;;;;;;10.25;10.25;;;;;19.14;72.04;100994.28;5029121;28;45289;-79
2022/06/05 01:49:09;;;;;;;;;14.00;9.50;;;;;19.14;71.78;100998.75;5044546;28;45408;-79
2022/06/05 01:52:09;;;;;;;;;8.75;8.75;;;;;19.13;71.95;100991.66;5044374;28;47760;-80
2022/06/05 01:54:42;;;;;;;;;10.50;9.00;;;;;19.10;71.96;100987.28;5033340;28;45273;-79
2022/06/05 01:57:12;;;;;;;;;12.00;11.67;;;;;19.09;71.74;100984.69;5050541;28;45215;-79
2022/06/05 02:00:05;;;;;;;;;10.00;10.00;;;;;19.05;71.99;100980.38;5041958;28;45415;-79
2022/06/05 02:02:38;;;;;;;;;10.00;10.00;;;;;19.05;71.54;100980.38;5042219;28;45572;-79
2022/06/05 02:05:15;;;;;;;;;10.25;10.25;;;;;19.03;71.63;100975.13;5042256;28;45226;-79
2022/06/05 02:07:57;;;;;;;;;12.50;10.75;;;;;19.00;71.77;100967.19;5042311;28;45329;-77
2022/06/05 02:10:33;;;;;;;;;10.00;9.75;;;;;18.98;71.95;100966.41;5042145;28;45428;-78
2022/06/05 02:12:59;;;;;;;;;11.25;10.50;;;;;18.97;71.75;100958.44;5051987;28;45544;-79
2022/06/05 02:15:28;;;;;;;;;12.50;11.00;;;;;18.97;71.68;100955.75;5045641;28;45171;-79
2022/06/05 02:17:59;;;;;;;;;12.25;11.00;;;;;18.94;71.49;100954.06;5034178;28;45352;-79
2022/06/05 02:20:25;;;;;;;;;12.00;10.00;;;;;18.90;72.06;100955.97;5044391;28;45146;-79
2022/06/05 02:22:52;;;;;;;;;24.50;22.00;;;;;18.86;71.88;100949.00;5047856;28;46199;-79
2022/06/05 02:25:24;;;;;;;;;28.25;26.50;;;;;18.82;71.70;100949.16;5062024;28;45426;-80
2022/06/05 02:27:50;;;;;;;;;37.75;32.75;;;;;18.79;72.05;100941.25;5050032;28;45285;-79
2022/06/05 02:30:16;;;;;;;;;39.00;34.50;;;;;18.77;71.94;100940.47;5041336;28;45506;-80
2022/06/05 02:33:00;;;;;;;;;36.75;33.75;;;;;18.75;71.81;100945.84;5034771;28;47389;-79
2022/06/05 02:35:48;;;;;;;;;38.00;34.50;;;;;18.75;71.73;100944.97;5027948;28;45376;-79
2022/06/05 02:38:20;;;;;;;;;15.75;13.75;;;;;18.71;72.18;100931.72;5036872;28;45506;-79
2022/06/05 02:40:54;;;;;;;;;21.00;18.00;;;;;18.68;72.14;100930.94;5041809;28;45703;-79
2022/06/05 02:43:25;;;;;;;;;19.25;17.50;;;;;18.66;71.95;100936.31;5041236;28;46353;-79
2022/06/05 02:46:26;;;;;;;;;13.00;13.00;;;;;18.66;71.90;100932.78;5036610;28;45766;-79
2022/06/05 02:49:20;;;;;;;;;17.50;15.50;;;;;18.63;72.24;100925.78;5032985;28;45471;-79
2022/06/05 02:51:47;;;;;;;;;13.50;13.50;;;;;18.64;72.10;100930.16;5041707;28;45397;-79
2022/06/05 02:54:23;;;;;;;;;12.25;12.25;;;;;18.63;72.49;100936.44;5046598;28;47052;-79
2022/06/05 02:56:49;;;;;;;;;12.00;12.00;;;;;18.61;72.41;100938.28;5052012;28;45386;-79
2022/06/05 02:59:14;;;;;;;;;14.00;14.00;;;;;18.61;72.23;100946.28;5041910;28;45837;-79
2022/06/05 03:04:23;;;;;;;;;13.00;12.25;;;;;18.56;72.33;100940.22;5041276;28;45732;-79
2022/06/05 03:06:49;;;;;;;;;10.00;10.00;;;;;18.54;72.17;100939.41;5036098;28;45416;-79
2022/06/05 03:09:15;;;;;;;;;11.50;10.75;;;;;18.52;72.58;100942.13;5055858;28;45579;-79
2022/06/05 03:11:42;;;;;;;;;11.25;10.75;;;;;18.51;72.49;100940.38;5041729;28;45430;-79
2022/06/05 03:14:08;;;;;;;;;13.75;12.00;;;;;18.50;72.69;100933.31;5060480;28;45573;-79
2022/06/05 03:16:34;;;;;;;;;13.00;11.50;;;;;18.49;72.74;100941.34;5038958;28;45916;-79
2022/06/05 03:18:59;;;;;;;;;11.00;10.50;;;;;18.47;72.57;100935.19;5040710;28;45226;-79
2022/06/05 03:21:25;;;;;;;;;12.00;11.00;;;;;18.47;72.31;100935.19;5041160;28;45241;-79
2022/06/05 03:23:50;;;;;;;;;13.50;13.50;;;;;18.48;72.84;100936.94;5042171;28;48174;-79
2022/06/05 03:26:16;;;;;;;;;14.75;12.50;;;;;18.44;72.77;100935.28;5039898;28;45709;-79
2022/06/05 03:28:41;;;;;;;;;11.00;11.00;;;;;18.43;72.28;100942.44;5039866;28;45283;-79
2022/06/05 03:31:08;;;;;;;;;13.00;12.75;;;;;18.41;72.84;100943.41;5070354;28;45518;-78
2022/06/05 03:33:36;;;;;;;;;13.25;12.75;;;;;18.40;73.15;100941.66;5042954;28;47207;-79
2022/06/05 03:36:08;;;;;;;;;13.00;11.75;;;;;18.39;72.93;100946.13;5061050;28;45287;-79
2022/06/05 03:38:33;;;;;;;;;11.00;10.75;;;;;18.40;73.07;100949.66;5068710;28;45413;-79
2022/06/05 03:40:58;;;;;;;;;13.75;10.75;;;;;18.39;73.04;100947.91;5066791;28;45489;-79
2022/06/05 03:43:24;;;;;;;;;12.25;11.00;;;;;18.40;73.15;100955.00;5060775;28;46616;-79
2022/06/05 03:45:49;;;;;;;;;16.25;12.50;;;;;18.39;73.17;100962.13;5060562;28;45337;-79
2022/06/05 03:48:15;;;;;;;;;12.00;10.75;;;;;18.40;72.86;100957.66;5080072;28;45804;-79
2022/06/05 03:50:41;;;;;;;;;11.75;11.50;;;;;18.39;73.23;100961.22;5068282;28;45641;-79
2022/06/05 03:53:07;;;;;;;;;13.00;12.50;;;;;18.37;73.16;100958.63;5060687;28;45953;-78
2022/06/05 03:55:33;;;;;;;;;15.00;14.00;;;;;18.38;73.24;100962.16;5055751;28;45969;-79
2022/06/05 03:57:58;;;;;;;;;14.50;14.25;;;;;18.39;73.13;100956.78;5073387;28;45354;-79
2022/06/05 04:00:25;;;;;;;;;12.75;12.00;;;;;18.39;73.26;100953.22;5074082;28;45268;-78
2022/06/05 04:02:50;;;;;;;;;13.25;13.00;;;;;18.38;73.17;100963.03;5061253;28;45283;-78
2022/06/05 04:05:19;;;;;;;;;10.50;10.50;;;;;18.41;73.15;100975.38;5061515;28;45458;-78
2022/06/05 04:07:44;;;;;;;;;11.75;10.75;;;;;18.41;73.40;100970.91;5061012;28;45406;-79
2022/06/05 04:10:15;;;;;;;;;13.50;12.00;;;;;18.43;73.10;100978.88;5074248;28;45405;-78
2022/06/05 04:12:40;;;;;;;;;10.00;10.00;;;;;18.46;73.10;100981.44;5080564;28;45386;-78
2022/06/05 04:15:07;;;;;;;;;10.50;10.00;;;;;18.48;72.91;100984.94;5079733;28;45339;-78
2022/06/05 04:17:32;;;;;;;;;8.25;8.25;;;;;18.50;72.63;100986.63;5052836;28;45408;-78
2022/06/05 04:19:57;;;;;;;;;12.75;10.00;;;;;18.52;73.05;100983.91;5062973;27;45400;-78
2022/06/05 04:22:23;;;;;;;;;11.25;10.00;;;;;18.56;73.13;100992.69;5093241;27;45585;-78
2022/06/05 04:24:49;;;;;;;;;11.00;10.25;;;;;18.60;72.62;100999.66;5080547;28;45531;-78
2022/06/05 04:27:14;;;;;;;;;9.75;8.75;;;;;18.61;72.81;100994.28;5059223;28;45308;-78
2022/06/05 04:29:40;;;;;;;;;11.50;9.75;;;;;18.63;72.53;100994.22;5039414;28;45737;-78
2022/06/05 04:32:06;;;;;;;;;12.00;11.75;;;;;18.68;72.69;101000.28;5052368;28;45436;-78
2022/06/05 04:34:32;;;;;;;;;13.00;10.50;;;;;18.69;72.40;101010.03;5038549;28;45637;-78
2022/06/05 04:36:57;;;;;;;;;14.25;14.25;;;;;18.73;72.31;101011.66;5040092;28;45402;-79
2022/06/05 04:39:23;;;;;;;;;15.75;14.00;;;;;18.74;72.61;101010.75;5039986;28;45307;-78
2022/06/05 04:41:48;;;;;;;;;14.25;12.75;;;;;18.77;72.63;101013.34;5039867;28;45476;-78
2022/06/05 04:44:16;;;;;;;;;15.00;15.00;;;;;18.79;72.21;101005.28;5040041;28;45276;-79
2022/06/05 04:46:42;;;;;;;;;13.50;13.25;;;;;18.82;72.44;101022.06;5046039;28;45340;-78
2022/06/05 04:49:09;;;;;;;;;14.75;13.25;;;;;18.84;72.47;101027.34;5058576;28;45408;-78
2022/06/05 04:51:36;;;;;;;;;15.00;15.00;;;;;18.87;72.11;101027.22;5046449;28;46459;-79
2022/06/05 04:54:02;;;;;;;;;15.00;15.00;;;;;18.89;72.39;101036.94;5045577;28;45205;-78
2022/06/05 04:56:29;;;;;;;;;13.75;12.75;;;;;18.89;71.75;101030.72;5039881;28;45302;-79
2022/06/05 04:58:56;;;;;;;;;11.75;11.00;;;;;18.91;72.23;101028.88;5038125;28;45541;-78
2022/06/05 05:01:23;;;;;;;;;12.50;12.50;;;;;18.94;71.78;101040.31;5054389;28;46822;-78
2022/06/05 05:03:53;;;;;;;;;12.50;11.50;;;;;19.00;71.75;101041.03;5055783;28;45597;-78
2022/06/05 05:06:18;;;;;;;;;13.25;12.25;;;;;19.05;71.77;101042.63;5058562;28;45298;-78
2022/06/05 05:08:44;;;;;;;;;13.50;13.50;;;;;19.11;71.96;101033.53;5056191;28;45388;-78
2022/06/05 05:11:09;;;;;;;;;13.00;12.00;;;;;19.17;71.53;101036.88;5039682;28;45236;-78
2022/06/05 05:13:35;;;;;;;;;13.75;13.25;;;;;19.24;71.64;101033.97;5054191;28;45278;-79
2022/06/05 05:16:00;;;;;;;;;13.75;13.25;;;;;19.30;71.57;101023.97;5059685;28;45226;-78
2022/06/05 05:18:26;;;;;;;;;11.50;11.50;;;;;19.38;71.42;101034.38;5056070;28;45584;-78
2022/06/05 05:20:52;;;;;;;;;16.25;13.75;;;;;19.43;70.93;101024.38;5046744;28;47356;-78
2022/06/05 05:23:21;;;;;;;;;13.00;12.00;;;;;19.49;71.26;101026.84;5059202;28;45341;-78
2022/06/05 05:25:48;;;;;;;;;11.50;11.00;;;;;19.54;71.35;101022.22;5059569;28;45287;-78
2022/06/05 05:28:13;;;;;;;;;15.75;15.75;;;;;19.61;70.76;101029.06;5042991;28;45430;-79
2022/06/05 05:30:44;;;;;;;;;13.25;13.25;;;;;19.66;70.67;101028.03;5051897;28;46315;-79
2022/06/05 05:33:09;;;;;;;;;15.75;15.00;;;;;19.67;70.45;101036.00;5059388;28;45441;-79
2022/06/05 05:35:35;;;;;;;;;14.00;14.00;;;;;19.71;70.55;101037.66;5051730;28;45366;-79
2022/06/05 05:38:00;;;;;;;;;17.75;13.75;;;;;19.74;70.67;101034.00;5075940;28;45609;-79
2022/06/05 05:43:09;;;;;;;;;15.25;13.25;;;;;19.84;70.29;101038.06;5059375;28;45458;-79
2022/06/05 05:45:35;;;;;;;;;14.00;13.75;;;;;19.92;70.20;101040.47;5059024;28;45302;-78
2022/06/05 05:48:00;;;;;;;;;13.75;12.75;;;;;19.97;70.15;101036.69;5058143;28;45557;-78
2022/06/05 05:50:26;;;;;;;;;17.50;13.50;;;;;20.04;69.90;101039.97;5069063;28;47094;-79
2022/06/05 05:52:51;;;;;;;;;11.75;11.75;;;;;20.09;69.79;101037.13;5057597;28;45309;-79
2022/06/05 05:55:19;;;;;;;;;10.00;10.00;;;;;20.14;69.72;101036.03;5069730;28;45188;-79
2022/06/05 05:57:48;;;;;;;;;10.75;10.75;;;;;20.20;69.61;101030.44;5057060;28;45661;-79
2022/06/05 06:00:17;;;;;;;;;12.00;9.75;;;;;20.24;68.97;101034.75;5070164;28;45483;-79
2022/06/05 06:02:44;;;;;;;;;15.00;13.25;;;;;20.28;69.47;101039.00;5060489;28;45241;-79
2022/06/05 06:05:13;;;;;;;;;13.75;11.75;;;;;20.32;69.05;101029.09;5040865;28;45434;-79
2022/06/05 06:07:39;;;;;;;;;11.75;11.25;;;;;20.37;69.18;101031.56;5061551;28;45358;-79
2022/06/05 06:10:05;;;;;;;;;14.50;13.25;;;;;20.39;68.84;101035.91;5062247;28;45443;-79
2022/06/05 06:12:31;;;;;;;;;12.00;11.25;;;;;20.40;68.95;101032.31;5068119;28;45503;-78
2022/06/05 06:14:56;;;;;;;;;11.25;11.25;;;;;20.44;68.44;101047.31;5070150;28;45274;-78
2022/06/05 06:17:21;;;;;;;;;14.75;14.25;;;;;20.48;68.84;101034.69;5062075;28;45571;-79
2022/06/05 06:19:47;;;;;;;;;15.25;14.00;;;;;20.51;68.28;101033.72;5062201;28;45366;-79
2022/06/05 06:22:12;;;;;;;;;13.25;13.25;;;;;20.54;68.19;101018.44;5062699;28;45293;-79
2022/06/05 06:24:38;;;;;;;;;12.75;9.75;;;;;20.59;68.46;101019.13;5082892;28;45759;-78
2022/06/05 06:27:04;;;;;;;;;13.75;12.75;;;;;20.64;68.28;101011.78;5060823;28;45514;-79
2022/06/05 06:29:29;;;;;;;;;15.00;15.00;;;;;20.68;68.14;101002.66;5062058;28;45232;-78
2022/06/05 06:31:55;;;;;;;;;13.50;13.50;;;;;20.73;67.96;101010.50;5056828;28;45717;-79
2022/06/05 06:34:20;;;;;;;;;15.50;14.00;;;;;20.76;67.82;101013.06;5074654;28;45232;-79
2022/06/05 06:36:46;;;;;;;;;16.50;15.50;;;;;20.82;67.67;101011.91;5064032;28;45267;-77
2022/06/05 06:39:11;;;;;;;;;13.25;12.25;;;;;20.88;67.59;101014.38;5070671;28;45550;-84
2022/06/05 06:41:37;;;;;;;;;15.75;13.00;;;;;20.95;67.66;101020.31;5062405;28;45381;-81
2022/06/05 06:44:03;;;;;;;;;15.00;11.00;;;;;21.00;67.32;101011.16;5062520;28;45386;-81
2022/06/05 06:46:30;;;;;;;;;12.00;11.75;;;;;21.05;67.39;101010.97;5047650;28;45504;-80
2022/06/05 06:48:56;;;;;;;;;12.25;11.00;;;;;21.10;67.41;101016.97;5081856;28;45434;-75
2022/06/05 06:51:21;;;;;;;;;15.50;14.25;;;;;21.12;66.78;101013.31;5081810;28;45232;-76
2022/06/05 06:53:47;;;;;;;;;13.25;11.50;;;;;21.18;67.14;101003.28;5063771;28;45246;-77
2022/06/05 06:56:22;;;;;;;;;15.25;13.25;;;;;21.21;66.49;101004.00;5081715;28;45566;-77
2022/06/05 06:58:48;;;;;;;;;14.75;12.50;;;;;21.25;66.49;101004.72;5063664;28;46518;-77
2022/06/05 07:01:14;;;;;;;;;13.75;12.00;;;;;21.32;66.39;100998.16;5081494;28;45166;-77
2022/06/05 07:03:40;;;;;;;;;12.75;12.25;;;;;21.35;66.07;100996.22;5081862;28;45228;-77
2022/06/05 07:06:10;;;;;;;;;11.50;11.25;;;;;21.42;65.88;101004.03;5081792;28;45153;-77
2022/06/05 07:08:36;;;;;;;;;13.75;13.25;;;;;21.46;65.97;100998.44;5081573;28;45412;-77
2022/06/05 07:11:05;;;;;;;;;17.00;16.00;;;;;21.50;65.77;100985.78;5081579;28;45429;-77
2022/06/05 07:13:30;;;;;;;;;14.50;11.50;;;;;21.55;65.81;100994.50;5063446;28;45321;-77
2022/06/05 07:15:56;;;;;;;;;12.50;12.50;;;;;21.61;65.73;100991.53;5081367;28;45527;-77
2022/06/05 07:18:21;;;;;;;;;9.75;9.75;;;;;21.69;65.59;100996.53;5073748;28;46258;-77
2022/06/05 07:20:47;;;;;;;;;12.50;12.50;;;;;21.71;64.71;100989.31;5081443;28;45359;-77
2022/06/05 07:23:13;;;;;;;;;11.75;11.75;;;;;21.73;64.62;100990.97;5081534;28;45334;-76
2022/06/05 07:25:45;;;;;;;;;11.00;10.50;;;;;21.77;64.71;100981.84;5080915;28;45430;-79
2022/06/05 07:28:11;;;;;;;;;13.25;13.25;;;;;21.81;64.52;100985.22;5062982;28;47064;-77
2022/06/05 07:30:36;;;;;;;;;14.25;11.75;;;;;21.86;64.62;100976.97;5081014;28;45440;-79
2022/06/05 07:33:01;;;;;;;;;11.75;11.25;;;;;21.91;64.39;100986.53;5081382;28;45361;-79
2022/06/05 07:35:27;;;;;;;;;10.00;8.33;;;;;22.01;64.03;100989.66;5081586;28;45370;-80
2022/06/05 07:37:52;;;;;;;;;8.25;8.25;;;;;22.08;63.90;100993.81;5062848;28;47140;-79
2022/06/05 07:40:18;;;;;;;;;8.75;8.75;;;;;22.15;63.54;101005.09;5081270;28;45418;-82
2022/06/05 07:42:44;;;;;;;;;9.67;8.00;;;;;22.18;63.41;100995.13;5061923;28;45393;-80
2022/06/05 07:45:13;;;;;;;;;11.50;10.00;;;;;22.28;63.55;100992.00;5080910;28;45383;-80
2022/06/05 07:47:40;;;;;;;;;10.25;10.25;;;;;22.44;63.30;100987.63;5080500;28;45478;-80
2022/06/05 07:50:06;;;;;;;;;9.00;8.00;;;;;22.53;63.19;100986.28;5054794;28;45279;-79
2022/06/05 07:55:15;;;;;;;;;8.33;8.00;;;;;22.72;62.43;100975.50;5061014;28;45442;-80
2022/06/05 07:57:41;;;;;;;;;7.00;7.00;;;;;22.81;62.19;100983.97;5056006;28;48167;-79
2022/06/05 08:00:09;;;;;;;;;8.33;7.67;;;;;22.90;62.18;100988.84;5049492;28;45394;-79
2022/06/05 08:02:36;;;;;;;;;7.00;7.00;;;;;22.94;61.90;101000.31;5060535;28;45343;-81
2022/06/05 08:05:03;;;;;;;;;9.67;8.33;;;;;22.96;61.91;100998.47;5060380;28;45415;-80
2022/06/05 08:07:31;;;;;;;;;8.67;6.67;;;;;23.01;61.68;100995.53;5042188;28;47140;-80
2022/06/05 08:09:57;;;;;;;;;10.33;10.00;;;;;23.08;61.96;100996.97;5042367;28;46085;-81
2022/06/05 08:12:25;;;;;;;;;5.00;4.33;;;;;23.13;61.82;100997.59;5060479;28;45378;-80
2022/06/05 08:14:52;;;;;;;;;5.33;5.33;;;;;23.21;61.24;100990.00;5062154;28;45409;-80
2022/06/05 08:17:23;;;;;;;;;6.33;5.33;;;;;23.33;60.95;100996.53;5066832;28;45293;-79
2022/06/05 08:19:49;;;;;;;;;7.00;7.00;;;;;23.40;60.64;101008.69;5042182;28;45395;-79
2022/06/05 08:22:18;;;;;;;;;6.00;6.00;;;;;23.44;60.38;101009.41;5073660;28;45398;-81
2022/06/05 08:24:44;;;;;;;;;6.67;6.67;;;;;23.48;60.43;101008.28;5081808;28;45251;-81
2022/06/05 08:27:12;;;;;;;;;6.33;4.00;;;;;23.46;60.27;101013.75;5048733;28;47739;-80
2022/06/05 08:29:38;;;;;;;;;6.00;5.00;;;;;23.41;60.40;101007.72;5044471;28;45825;-76
2022/06/05 08:32:05;;;;;;;;;3.00;3.00;;;;;23.36;60.31;101009.78;5058680;28;45350;-77
2022/06/05 08:34:30;;;;;;;;;4.00;4.00;;;;;23.33;60.24;101020.72;5059433;28;45524;-77
2022/06/05 08:42:56;;;;;;;;;5.67;5.33;;;;;23.23;59.85;101031.09;5040067;28;45449;-76
2022/06/05 08:45:26;;;;;;;;;5.00;5.00;;;;;23.21;59.74;101032.97;5019003;28;45311;-79
2022/06/05 08:48:02;;;;;;;;;6.00;6.00;;;;;23.07;60.09;101038.19;5058027;28;45486;-78
2022/06/05 08:50:38;;;;;;;;;4.67;3.33;;;;;22.89;60.02;101043.50;5049282;28;45294;-78
2022/06/05 08:53:49;;;;;;;;;7.00;3.00;;;;;22.67;60.44;101049.09;5057065;28;45472;-78
2022/06/05 08:56:25;;;;;;;;;6.00;6.00;;;;;22.55;60.89;101048.81;5012681;28;45348;-78
2022/06/05 08:58:57;;;;;;;;;7.00;5.67;;;;;22.50;61.42;101048.16;4997842;28;45410;-79
2022/06/05 09:01:47;;;;;;;;;8.00;6.67;;;;;22.44;61.53;101049.34;5031412;28;45450;-78
2022/06/05 09:04:42;;;;;;;;;4.00;4.00;;;;;22.42;62.06;101038.66;5042171;28;45323;-80
2022/06/05 09:07:13;;;;;;;;;5.67;5.67;;;;;22.46;62.12;101034.91;5028184;28;45418;-80
2022/06/05 09:09:44;;;;;;;;;4.33;4.33;;;;;22.53;62.07;101015.81;5054833;28;46308;-80
2022/06/05 09:12:18;;;;;;;;;8.00;6.00;;;;;22.59;62.12;101019.06;5055238;28;45495;-80
2022/06/05 09:15:09;;;;;;;;;4.33;3.67;;;;;22.64;61.72;101040.31;5050318;28;45500;-79
2022/06/05 09:17:37;;;;;;;;;8.00;6.00;;;;;22.61;61.91;101041.34;5045051;28;45165;-79
2022/06/05 09:20:03;;;;;;;;;6.00;5.67;;;;;22.58;61.84;101049.53;5052650;28;45597;-79
2022/06/05 09:22:40;;;;;;;;;7.00;6.67;;;;;22.57;61.85;101057.66;5046313;28;45637;-79
2022/06/05 09:25:23;;;;;;;;;4.33;4.33;;;;;22.60;61.78;101054.84;5054769;28;45498;-78
2022/06/05 09:28:12;;;;;;;;;5.33;4.00;;;;;22.64;61.82;101061.78;5039194;28;45376;-79
2022/06/05 09:30:57;;;;;;;;;5.33;5.33;;;;;22.65;61.56;101064.41;5046615;28;47438;-77
2022/06/05 09:33:27;;;;;;;;;6.00;6.00;;;;;22.65;61.55;101064.41;5054378;28;45346;-77
2022/06/05 09:36:03;;;;;;;;;7.67;7.33;;;;;22.70;61.47;101076.72;5039443;28;45322;-79
2022/06/05 09:38:34;;;;;;;;;7.00;7.00;;;;;22.67;61.52;101080.44;5044820;28;46030;-82
2022/06/05 09:41:06;;;;;;;;;7.67;6.00;;;;;22.64;61.18;101085.94;5059694;28;45589;-88
2022/06/05 09:43:34;;;;;;;;;6.00;6.00;;;;;22.56;61.36;101085.44;5042707;28;45275;-81
2022/06/05 09:46:22;;;;;;;;;6.67;6.67;;;;;22.49;61.52;101092.06;5041272;28;45261;-84
2022/06/05 09:49:00;;;;;;;;;8.33;8.33;;;;;22.38;61.81;101096.13;5061088;28;45306;-82
2022/06/05 09:51:28;;;;;;;;;7.67;7.67;;;;;22.27;61.38;101105.63;5043314;28;45625;-81
2022/06/05 09:54:21;;;;;;;;;8.33;7.33;;;;;22.17;62.33;101105.13;5055021;28;45445;-81
2022/06/05 10:00:00;;;;;;;;;8.00;6.67;;;;;22.34;62.34;101107.06;5041037;28;45556;-81
2022/06/05 10:02:27;;;;;;;;;8.00;8.00;;;;;22.54;62.14;101098.94;5039339;28;46979;-81
2022/06/05 10:04:53;;;;;;;;;12.00;10.00;;;;;22.73;61.61;101106.97;5048826;28;45636;-82
2022/06/05 10:07:34;;;;;;;;;12.33;12.00;;;;;22.85;60.83;101127.88;5056661;28;45360;-82
2022/06/05 10:10:16;;;;;;;;;9.67;9.67;;;;;22.78;60.10;101126.41;5038663;28;45483;-81
2022/06/05 10:12:54;;;;;;;;;10.33;10.33;;;;;22.61;60.12;101123.66;5047988;28;45680;-82
2022/06/05 10:15:31;;;;;;;;;9.67;9.67;;;;;22.46;60.41;101131.50;5043658;28;45498;-81
2022/06/05 10:18:01;;;;;;;;;12.67;10.67;;;;;22.29;60.61;101135.91;5040672;28;45524;-81
2022/06/05 10:20:37;;;;;;;;;13.00;10.00;;;;;22.13;60.68;101141.06;5038962;28;45906;-80
2022/06/05 10:23:08;;;;;;;;;11.00;9.67;;;;;21.94;60.94;101141.03;5052355;28;45514;-84
2022/06/05 10:25:51;;;;;;;;;10.33;10.00;;;;;21.80;60.88;101138.97;5054698;28;45898;-84
2022/06/05 10:28:21;;;;;;;;;11.67;11.00;;;;;21.71;61.26;101142.94;5057535;28;45771;-86
2022/06/05 10:30:56;;;;;;;;;11.00;10.00;;;;;21.61;61.86;101148.75;5047512;28;45752;-84
2022/06/05 10:34:12;;;;;;;;;13.50;11.00;;;;;21.51;61.89;101156.31;5053219;28;46455;-89
2022/06/05 10:36:47;;;;;;;;;13.25;13.00;;;;;21.44;62.24;101154.81;5054984;28;45523;-87
2022/06/05 10:39:24;;;;;;;;;16.00;16.00;;;;;21.41;62.52;101153.16;5068452;28;45753;-86
2022/06/05 10:42:20;;;;;;;;;15.25;14.25;;;;;21.47;62.67;101141.31;5049492;28;45424;-86
2022/06/05 10:45:12;;;;;;;;;16.25;13.25;;;;;21.54;62.27;101140.09;5028269;28;48102;-84
2022/06/05 10:47:47;;;;;;;;;12.75;12.25;;;;;21.62;62.29;101140.63;5054714;28;45720;-87
2022/06/05 10:50:26;;;;;;;;;15.75;15.75;;;;;21.77;61.76;101136.44;5032104;28;45514;-89
2022/06/05 10:53:23;;;;;;;;;14.25;14.25;;;;;21.93;61.66;101145.53;5041811;28;45600;-88
2022/06/05 10:56:12;;;;;;;;;13.75;13.00;;;;;22.05;61.19;101141.41;5027949;28;47660;-86
2022/06/05 10:58:56;;;;;;;;;13.00;12.67;;;;;22.10;60.42;101138.53;5081288;28;45778;-87
2022/06/05 11:02:12;;;;;;;;;15.00;11.67;;;;;22.02;60.43;101145.13;5028499;28;45448;-88
2022/06/05 11:04:50;;;;;;;;;14.00;11.00;;;;;21.85;60.62;101142.31;5039808;28;45558;-92
2022/06/05 11:07:37;;;;;;;;;17.50;16.00;;;;;21.77;60.88;101139.97;5049191;28;45748;-79
2022/06/05 11:10:16;;;;;;;;;12.00;11.00;;;;;21.71;61.26;101136.72;5069867;28;45379;-79
2022/06/05 11:15:54;;;;;;;;;12.00;11.33;;;;;21.66;61.80;101141.41;5070673;28;45749;-80
2022/06/05 11:19:00;;;;;;;;;12.75;10.75;;;;;21.66;61.42;101144.94;5053682;28;48029;-81
2022/06/05 11:21:34;;;;;;;;;14.75;13.00;;;;;21.70;61.88;101151.88;5060815;28;45433;-80
2022/06/05 11:24:15;;;;;;;;;10.00;9.00;;;;;21.77;61.59;101164.09;5051347;28;45376;-80
2022/06/05 11:27:09;;;;;;;;;13.25;12.50;;;;;21.85;61.59;101153.03;5050022;28;45552;-80
2022/06/05 11:29:49;;;;;;;;;17.67;16.00;;;;;21.86;61.42;101154.78;5045801;28;47602;-80
2022/06/05 11:32:23;;;;;;;;;15.75;15.75;;;;;21.87;61.49;101161.91;5033824;28;45273;-80
2022/06/05 11:35:04;;;;;;;;;15.50;13.25;;;;;21.86;61.41;101160.13;5067424;28;45519;-80
2022/06/05 11:37:34;;;;;;;;;14.67;14.00;;;;;21.80;61.41;101158.59;5047057;28;45548;-79
2022/06/05 11:40:24;;;;;;;;;15.25;14.75;;;;;21.76;61.40;101172.22;5064385;28;46068;-79
2022/06/05 11:43:17;;;;;;;;;15.00;14.50;;;;;21.70;61.42;101172.47;5060379;28;45477;-80
2022/06/05 11:45:51;;;;;;;;;14.50;12.00;;;;;21.59;61.63;101172.94;5058464;28;45493;-80
2022/06/05 11:49:03;;;;;;;;;12.00;10.50;;;;;21.49;61.85;101177.81;5071236;28;45419;-80
2022/06/05 11:51:48;;;;;;;;;15.50;13.75;;;;;21.41;62.18;101190.69;5055866;28;46234;-78
2022/06/05 11:54:27;;;;;;;;;13.33;13.33;;;;;21.39;62.44;101189.84;5063086;28;45555;-78